Time;durP1;ratioP1;P1;durP2;ratioP2;P2;SDS_P1;SDS_P2;PMS_P1;PMS_P2;Temp;Humidity;BMP_temperature;BMP_pressure;BME280_temperature;BME280_humidity;BME280_pressure;Samples;Min_cycle;Max_cycle;Signal;HPM_P1;HPM_P2
2020/12/27 00:02:09;;;;;;;3.37;2.90;;;-0.70;99.90;;;;;;5021165;28;20201;-77
2020/12/27 00:04:35;;;;;;;4.77;2.93;;;-0.70;99.90;;;;;;5022121;28;20186;-76
2020/12/27 00:07:02;;;;;;;4.53;3.60;;;-0.60;99.90;;;;;;5033715;28;20410;-77
2020/12/27 00:09:27;;;;;;;4.33;2.73;;;-0.70;99.90;;;;;;5029739;28;20646;-77
2020/12/27 00:11:53;;;;;;;7.73;3.40;;;-0.70;99.90;;;;;;5013968;28;583188;-77
2020/12/27 00:14:18;;;;;;;5.77;3.83;;;-0.60;99.90;;;;;;5034065;28;20207;-76
2020/12/27 00:16:44;;;;;;;4.63;3.00;;;-0.70;99.90;;;;;;5039502;28;20181;-76
2020/12/27 00:19:10;;;;;;;3.90;2.90;;;-0.70;99.90;;;;;;5034683;28;20313;-77
2020/12/27 00:21:35;;;;;;;3.73;3.40;;;-0.70;99.90;;;;;;5037510;28;20191;-76
2020/12/27 00:24:01;;;;;;;3.37;2.93;;;-0.80;99.90;;;;;;5040009;28;20591;-77
2020/12/27 00:26:26;;;;;;;4.63;2.90;;;-0.80;99.90;;;;;;5037013;28;20205;-76
2020/12/27 00:28:52;;;;;;;4.37;3.37;;;-0.80;99.90;;;;;;5040918;28;20184;-77
2020/12/27 00:31:17;;;;;;;9.60;3.63;;;-0.80;99.90;;;;;;5033371;28;20183;-77
2020/12/27 00:33:43;;;;;;;5.30;3.30;;;-0.90;99.90;;;;;;5039787;28;20528;-77
2020/12/27 00:36:09;;;;;;;10.53;3.77;;;-0.90;99.90;;;;;;5035734;28;20195;-77
2020/12/27 00:38:35;;;;;;;4.70;3.17;;;-0.90;99.90;;;;;;5039088;28;20239;-76
2020/12/27 00:41:00;;;;;;;5.00;3.87;;;-0.90;99.90;;;;;;5037257;28;20624;-77
2020/12/27 00:43:26;;;;;;;5.80;3.30;;;-0.90;99.90;;;;;;5030731;28;20271;-76
2020/12/27 00:45:52;;;;;;;4.67;3.67;;;-0.90;99.90;;;;;;5037072;28;20176;-76
2020/12/27 00:48:17;;;;;;;5.60;3.77;;;-1.00;99.90;;;;;;5032469;28;20434;-76
2020/12/27 00:50:43;;;;;;;3.87;3.53;;;-1.00;99.90;;;;;;5034380;28;20173;-76
2020/12/27 00:53:08;;;;;;;6.07;3.20;;;-1.00;99.90;;;;;;5038542;28;20563;-77
2020/12/27 00:55:34;;;;;;;4.53;3.40;;;-1.10;99.90;;;;;;5020304;28;20889;-77
2020/12/27 00:57:59;;;;;;;3.20;2.73;;;-1.00;99.90;;;;;;5030402;28;20622;-77
2020/12/27 01:00:25;;;;;;;5.03;3.50;;;-1.00;99.90;;;;;;5020353;28;20655;-77
2020/12/27 01:02:50;;;;;;;4.77;3.33;;;-1.00;99.90;;;;;;5023396;28;20194;-77
2020/12/27 01:05:16;;;;;;;9.17;2.87;;;-1.00;99.90;;;;;;5038941;28;20219;-76
2020/12/27 01:07:41;;;;;;;2.57;2.37;;;-1.00;99.90;;;;;;5037992;28;20248;-77
2020/12/27 01:10:07;;;;;;;8.33;3.13;;;-1.00;99.90;;;;;;5039692;28;20399;-76
2020/12/27 01:12:33;;;;;;;4.00;3.57;;;-1.00;99.90;;;;;;5039192;28;20207;-77
2020/12/27 01:14:58;;;;;;;5.23;2.90;;;-0.90;99.90;;;;;;5037681;28;20660;-77
2020/12/27 01:17:24;;;;;;;8.93;3.70;;;-0.90;99.90;;;;;;5039447;28;20180;-77
2020/12/27 01:19:49;;;;;;;5.10;2.87;;;-0.90;99.90;;;;;;5038222;28;20205;-77
2020/12/27 01:22:15;;;;;;;4.80;3.43;;;-0.90;99.90;;;;;;5033837;28;20738;-77
2020/12/27 01:24:40;;;;;;;6.77;3.40;;;-0.90;99.90;;;;;;5037677;28;20717;-77
2020/12/27 01:27:06;;;;;;;6.20;2.83;;;-1.00;99.90;;;;;;5034615;28;20673;-77
2020/12/27 01:29:31;;;;;;;4.53;3.43;;;-1.00;99.90;;;;;;5038098;28;20537;-77
2020/12/27 01:32:01;;;;;;;4.00;2.90;;;-1.00;99.90;;;;;;5036545;28;20717;-77
2020/12/27 01:34:27;;;;;;;3.30;2.90;;;-1.00;99.90;;;;;;5037671;28;20647;-77
2020/12/27 01:36:53;;;;;;;8.57;3.47;;;-0.90;99.90;;;;;;5040332;28;20420;-77
2020/12/27 01:39:18;;;;;;;5.23;3.50;;;-0.90;99.90;;;;;;5036445;28;20462;-77
2020/12/27 01:41:44;;;;;;;6.60;3.30;;;-1.00;99.90;;;;;;5037498;28;20224;-77
2020/12/27 01:44:12;;;;;;;3.60;3.10;;;-1.00;99.90;;;;;;5038602;28;20652;-76
2020/12/27 01:46:47;;;;;;;5.80;3.50;;;-1.00;99.90;;;;;;5038421;28;20547;-76
2020/12/27 01:49:13;;;;;;;6.47;3.90;;;-1.00;99.90;;;;;;5036506;28;20501;-76
2020/12/27 01:51:39;;;;;;;4.57;3.60;;;-0.90;99.90;;;;;;5037374;28;20527;-76
2020/12/27 01:54:06;;;;;;;4.30;3.90;;;-0.90;99.90;;;;;;5036116;28;20199;-76
2020/12/27 01:56:38;;;;;;;7.97;4.37;;;-0.90;99.90;;;;;;5038201;28;20406;-77
2020/12/27 01:59:08;;;;;;;6.07;4.17;;;-0.90;99.90;;;;;;5039670;28;20540;-77
2020/12/27 02:01:36;;;;;;;5.13;3.93;;;-0.90;99.90;;;;;;5041858;28;20535;-76
2020/12/27 02:04:03;;;;;;;12.57;4.00;;;-0.90;99.90;;;;;;5042499;28;20797;-78
2020/12/27 02:06:28;;;;;;;5.50;3.27;;;-0.90;99.90;;;;;;5040997;28;20434;-77
2020/12/27 02:08:55;;;;;;;6.10;3.77;;;-0.90;99.90;;;;;;5039062;28;20457;-76
2020/12/27 02:11:24;;;;;;;8.20;4.27;;;-0.90;99.90;;;;;;5043177;28;20534;-76
2020/12/27 02:13:51;;;;;;;5.67;3.57;;;-1.00;99.90;;;;;;5036181;28;20436;-77
2020/12/27 02:16:21;;;;;;;4.93;3.97;;;-1.00;99.90;;;;;;5074974;28;20407;-76
2020/12/27 02:19:09;;;;;;;6.17;3.93;;;-1.00;99.90;;;;;;5061769;28;20461;-76
2020/12/27 02:21:35;;;;;;;10.10;3.47;;;-1.00;99.90;;;;;;5043157;28;20959;-76
2020/12/27 02:24:00;;;;;;;7.90;4.23;;;-1.00;99.90;;;;;;5041809;28;20505;-77
2020/12/27 02:26:27;;;;;;;4.60;3.23;;;-1.00;99.90;;;;;;5040286;28;20178;-76
2020/12/27 02:28:55;;;;;;;6.30;4.03;;;-1.00;99.90;;;;;;5042824;28;20258;-76
2020/12/27 02:31:22;;;;;;;4.93;4.40;;;-1.00;99.90;;;;;;5040044;28;20403;-77
2020/12/27 02:33:48;;;;;;;5.87;3.50;;;-1.00;99.90;;;;;;5035084;28;20416;-78
2020/12/27 02:36:13;;;;;;;7.00;3.60;;;-1.00;99.90;;;;;;5042877;28;20832;-78
2020/12/27 02:38:39;;;;;;;8.77;3.93;;;-1.00;99.90;;;;;;5041721;28;20304;-78
2020/12/27 02:41:16;;;;;;;5.60;3.20;;;-1.00;99.90;;;;;;5041095;28;20185;-78
2020/12/27 02:43:41;;;;;;;4.67;3.53;;;-1.00;99.90;;;;;;5039949;28;20181;-78
2020/12/27 02:46:20;;;;;;;5.03;3.00;;;-1.00;99.90;;;;;;5042582;28;20555;-78
2020/12/27 02:48:46;;;;;;;4.03;3.73;;;-1.00;99.90;;;;;;5038612;28;20185;-78
2020/12/27 02:51:12;;;;;;;4.53;3.03;;;-1.00;99.90;;;;;;5075800;28;20471;-78
2020/12/27 02:53:37;;;;;;;6.47;3.53;;;-1.00;99.90;;;;;;5040399;28;20413;-77
2020/12/27 02:56:03;;;;;;;7.70;3.90;;;-1.00;99.90;;;;;;5039769;28;20264;-77
2020/12/27 02:58:29;;;;;;;3.63;2.90;;;-1.00;99.90;;;;;;5037956;28;20205;-78
2020/12/27 03:00:54;;;;;;;4.43;3.43;;;-1.00;99.90;;;;;;5038624;28;20655;-78
2020/12/27 03:03:20;;;;;;;4.00;3.03;;;-1.00;99.90;;;;;;5040226;28;20185;-79
2020/12/27 03:05:45;;;;;;;4.10;2.87;;;-1.00;99.90;;;;;;5038844;28;20186;-78
2020/12/27 03:08:11;;;;;;;4.90;2.57;;;-1.00;99.90;;;;;;5041778;28;20199;-78
2020/12/27 03:10:36;;;;;;;4.20;3.57;;;-1.00;99.90;;;;;;5038815;28;20192;-78
2020/12/27 03:13:02;;;;;;;3.80;2.90;;;-1.00;99.90;;;;;;5040612;28;20214;-78
2020/12/27 03:15:27;;;;;;;5.07;3.80;;;-1.00;99.90;;;;;;5041255;28;20209;-78
2020/12/27 03:17:53;;;;;;;3.53;2.33;;;-0.90;99.90;;;;;;5038750;28;20204;-78
2020/12/27 03:20:19;;;;;;;3.80;3.40;;;-0.90;99.90;;;;;;5069177;28;20177;-78
2020/12/27 03:22:45;;;;;;;3.70;2.37;;;-0.90;99.90;;;;;;5041215;28;20454;-78
2020/12/27 03:25:11;;;;;;;3.90;3.13;;;-0.80;99.90;;;;;;5039504;28;20246;-78
2020/12/27 03:27:37;;;;;;;4.27;3.40;;;-0.80;99.90;;;;;;5040260;28;20198;-77
2020/12/27 03:30:04;;;;;;;3.93;3.50;;;-0.80;99.90;;;;;;5040916;28;20896;-78
2020/12/27 03:32:29;;;;;;;4.03;3.60;;;-0.90;99.90;;;;;;5039566;28;20293;-77
2020/12/27 03:34:55;;;;;;;7.07;3.00;;;-0.90;99.90;;;;;;5038117;28;20516;-77
2020/12/27 03:37:20;;;;;;;3.83;2.97;;;-0.90;99.90;;;;;;5042341;28;20649;-77
2020/12/27 03:39:46;;;;;;;6.67;3.50;;;-1.00;99.90;;;;;;5032298;28;20625;-77
2020/12/27 03:42:12;;;;;;;5.80;3.23;;;-1.00;99.90;;;;;;5038249;28;20690;-77
2020/12/27 03:44:37;;;;;;;5.87;3.30;;;-1.00;99.90;;;;;;5039704;28;20543;-77
2020/12/27 03:47:03;;;;;;;5.50;3.13;;;-1.00;99.90;;;;;;5039622;28;20209;-77
2020/12/27 03:49:28;;;;;;;3.90;3.57;;;-1.00;99.90;;;;;;5041547;28;20682;-77
2020/12/27 03:51:54;;;;;;;4.83;3.90;;;-1.00;99.90;;;;;;5038266;28;20300;-77
2020/12/27 03:54:19;;;;;;;5.50;2.90;;;-1.00;99.90;;;;;;5032710;28;20224;-77
2020/12/27 03:56:45;;;;;;;4.00;3.30;;;-1.00;99.90;;;;;;5040745;28;20211;-77
2020/12/27 03:59:10;;;;;;;5.47;3.40;;;-1.10;99.90;;;;;;5038813;28;20223;-77
2020/12/27 04:01:36;;;;;;;9.40;4.67;;;-1.10;99.90;;;;;;5039436;28;20220;-77
2020/12/27 04:04:01;;;;;;;9.67;4.10;;;-1.00;99.90;;;;;;5040542;28;20222;-77
2020/12/27 04:06:27;;;;;;;5.90;3.63;;;-1.10;99.90;;;;;;5037825;28;20182;-78
2020/12/27 04:08:52;;;;;;;5.20;3.83;;;-1.10;99.90;;;;;;5037821;28;20178;-77
2020/12/27 04:11:18;;;;;;;5.57;3.13;;;-1.10;99.90;;;;;;5038045;28;20174;-77
2020/12/27 04:13:43;;;;;;;4.83;2.93;;;-1.10;99.90;;;;;;5040462;28;20198;-77
2020/12/27 04:16:09;;;;;;;3.87;3.43;;;-1.00;99.90;;;;;;5039489;28;20181;-77
2020/12/27 04:18:34;;;;;;;6.07;4.33;;;-1.00;99.90;;;;;;5037220;28;20213;-77
2020/12/27 04:21:00;;;;;;;7.60;3.73;;;-1.10;99.90;;;;;;5038946;28;20177;-77
2020/12/27 04:23:25;;;;;;;5.10;3.60;;;-1.10;99.90;;;;;;5034418;28;20194;-78
2020/12/27 04:25:51;;;;;;;5.67;3.10;;;-1.10;99.90;;;;;;5039510;28;20176;-77
2020/12/27 04:28:17;;;;;;;3.40;2.90;;;-1.10;99.90;;;;;;5039447;28;20183;-77
2020/12/27 04:30:43;;;;;;;5.03;3.53;;;-1.10;99.90;;;;;;5043350;28;20210;-78
2020/12/27 04:33:09;;;;;;;5.90;3.47;;;-1.10;99.90;;;;;;5032876;28;20252;-77
2020/12/27 04:35:34;;;;;;;6.37;3.07;;;-1.10;99.90;;;;;;5037992;28;20415;-78
2020/12/27 04:38:00;;;;;;;4.80;3.77;;;-1.10;99.90;;;;;;5040360;28;20200;-78
2020/12/27 04:40:26;;;;;;;7.10;4.20;;;-1.20;99.90;;;;;;5038352;28;20210;-78
2020/12/27 04:42:52;;;;;;;6.80;4.33;;;-1.20;99.90;;;;;;5036566;28;20754;-78
2020/12/27 04:45:19;;;;;;;3.93;3.50;;;-1.20;99.90;;;;;;5038335;28;20687;-78
2020/12/27 04:47:46;;;;;;;7.43;3.77;;;-1.20;99.90;;;;;;5037615;28;21003;-78
2020/12/27 04:50:12;;;;;;;6.23;3.80;;;-1.20;99.90;;;;;;5039908;28;20448;-78
2020/12/27 04:52:38;;;;;;;4.93;3.23;;;-1.20;99.90;;;;;;5036312;28;20821;-78
2020/12/27 04:55:03;;;;;;;3.93;3.30;;;-1.20;99.90;;;;;;5038352;28;20404;-78
2020/12/27 04:57:29;;;;;;;7.27;4.77;;;-1.20;99.90;;;;;;5037374;28;20947;-77
2020/12/27 04:59:56;;;;;;;4.50;3.60;;;-1.20;99.90;;;;;;5038849;28;20205;-78
2020/12/27 05:02:22;;;;;;;12.50;3.93;;;-1.30;99.90;;;;;;5037081;28;21019;-77
2020/12/27 05:04:47;;;;;;;4.60;3.90;;;-1.30;99.90;;;;;;5041710;28;20399;-78
2020/12/27 05:07:23;;;;;;;4.63;3.80;;;-1.30;99.90;;;;;;5038310;28;20207;-78
2020/12/27 05:09:50;;;;;;;4.70;3.03;;;-1.30;99.90;;;;;;5041102;28;20188;-79
2020/12/27 05:12:16;;;;;;;11.00;3.67;;;-1.30;99.90;;;;;;5038434;28;20425;-79
2020/12/27 05:14:42;;;;;;;4.63;2.97;;;-1.30;99.90;;;;;;5039108;28;21063;-78
2020/12/27 05:17:07;;;;;;;5.37;3.53;;;-1.30;99.90;;;;;;5039752;28;20390;-78
2020/12/27 05:19:33;;;;;;;6.57;3.93;;;-1.30;99.90;;;;;;5036920;28;20229;-79
2020/12/27 05:22:20;;;;;;;4.30;3.60;;;-1.30;99.90;;;;;;5038984;28;20246;-78
2020/12/27 05:24:50;;;;;;;5.97;3.80;;;-1.30;99.90;;;;;;5037988;28;20474;-78
2020/12/27 05:27:16;;;;;;;5.43;3.40;;;-1.30;99.90;;;;;;5044031;28;20413;-78
2020/12/27 05:29:42;;;;;;;4.83;3.80;;;-1.20;99.90;;;;;;5041886;28;20440;-78
2020/12/27 05:32:12;;;;;;;5.70;3.80;;;-1.20;99.90;;;;;;5042278;28;21015;-78
2020/12/27 05:34:38;;;;;;;3.33;3.03;;;-1.10;99.90;;;;;;5046159;28;20854;-78
2020/12/27 05:37:05;;;;;;;5.43;4.07;;;-1.20;99.90;;;;;;5042548;28;20431;-78
2020/12/27 05:39:32;;;;;;;3.53;3.23;;;-1.20;99.90;;;;;;5044174;28;20437;-78
2020/12/27 05:42:06;;;;;;;4.97;3.90;;;-1.10;99.90;;;;;;5040273;28;20423;-79
2020/12/27 05:44:34;;;;;;;5.90;3.10;;;-1.10;99.90;;;;;;5039854;28;20463;-78
2020/12/27 05:47:00;;;;;;;5.03;4.20;;;-1.10;99.90;;;;;;5045864;28;20806;-78
2020/12/27 05:49:26;;;;;;;5.17;3.87;;;-1.10;99.90;;;;;;5042403;28;20468;-78
2020/12/27 05:51:57;;;;;;;5.80;4.33;;;-1.00;99.90;;;;;;5042094;28;20443;-78
2020/12/27 05:54:30;;;;;;;4.20;3.80;;;-1.00;99.90;;;;;;5041638;28;20213;-78
2020/12/27 05:56:58;;;;;;;6.90;3.57;;;-1.00;99.90;;;;;;5046249;28;20408;-79
2020/12/27 05:59:29;;;;;;;5.90;3.70;;;-1.00;99.90;;;;;;5044402;28;20972;-76
2020/12/27 06:01:56;;;;;;;12.20;4.03;;;-1.00;99.90;;;;;;5035860;28;21080;-75
2020/12/27 06:04:38;;;;;;;3.40;3.10;;;-1.00;99.90;;;;;;5043411;28;20428;-76
2020/12/27 06:07:04;;;;;;;6.23;3.83;;;-0.90;99.90;;;;;;5040433;28;20398;-77
2020/12/27 06:10:09;;;;;;;5.77;4.03;;;-0.90;99.90;;;;;;5041258;28;20486;-75
2020/12/27 06:12:47;;;;;;;7.30;3.80;;;-0.90;99.90;;;;;;5039151;28;20474;-76
2020/12/27 06:15:36;;;;;;;7.20;4.53;;;-0.90;99.90;;;;;;5042768;28;20593;-76
2020/12/27 06:18:13;;;;;;;5.33;4.00;;;-0.80;99.90;;;;;;5037425;28;20430;-75
2020/12/27 06:20:40;;;;;;;4.63;4.00;;;-0.80;99.90;;;;;;5040508;28;20404;-74
2020/12/27 06:23:07;;;;;;;5.57;3.80;;;-0.70;99.90;;;;;;5043749;28;20943;-75
2020/12/27 06:25:33;;;;;;;11.57;5.03;;;-0.80;99.90;;;;;;5032414;28;20429;-76
2020/12/27 06:28:00;;;;;;;4.90;3.40;;;-0.80;99.90;;;;;;5042664;28;20502;-77
2020/12/27 06:30:42;;;;;;;4.00;3.37;;;-0.70;99.90;;;;;;5035993;28;20428;-76
2020/12/27 06:33:25;;;;;;;6.27;3.63;;;-0.70;99.90;;;;;;5040363;28;20997;-76
2020/12/27 06:35:50;;;;;;;5.07;4.10;;;-0.70;99.90;;;;;;5039319;28;20966;-76
2020/12/27 06:38:22;;;;;;;6.80;3.43;;;-0.70;99.90;;;;;;5038206;28;20471;-76
2020/12/27 06:40:58;;;;;;;4.80;3.50;;;-0.60;99.90;;;;;;5041567;28;20201;-76
2020/12/27 06:43:25;;;;;;;4.93;3.60;;;-0.60;99.90;;;;;;5035683;28;20432;-77
2020/12/27 06:45:52;;;;;;;3.03;2.73;;;-0.60;99.90;;;;;;5031368;28;20422;-78
2020/12/27 06:48:44;;;;;;;6.97;3.53;;;-0.60;99.90;;;;;;5038582;28;20455;-78
2020/12/27 06:51:10;;;;;;;4.00;3.60;;;-0.70;99.90;;;;;;5038929;28;20428;-77
2020/12/27 06:53:46;;;;;;;4.47;3.10;;;-0.70;99.90;;;;;;5039574;28;20813;-77
2020/12/27 06:56:13;;;;;;;7.50;3.30;;;-0.70;99.90;;;;;;5043500;28;20180;-76
2020/12/27 06:58:39;;;;;;;6.97;3.60;;;-0.70;99.90;;;;;;5041120;28;20441;-79
2020/12/27 07:01:17;;;;;;;5.33;3.13;;;-0.70;99.90;;;;;;5040843;28;20419;-78
2020/12/27 07:03:44;;;;;;;3.70;2.60;;;-0.60;99.90;;;;;;5038712;28;20841;-77
2020/12/27 07:06:27;;;;;;;3.90;3.30;;;-0.60;99.90;;;;;;5042131;28;20398;-77
2020/12/27 07:08:57;;;;;;;4.67;2.30;;;-0.50;99.90;;;;;;5038484;28;20495;-77
2020/12/27 07:11:25;;;;;;;6.07;3.67;;;-0.50;99.90;;;;;;5042762;28;20467;-74
2020/12/27 07:13:57;;;;;;;5.13;4.33;;;-0.40;99.90;;;;;;5038800;28;20452;-75
2020/12/27 07:16:55;;;;;;;3.43;3.13;;;-0.40;99.90;;;;;;5066502;28;20755;-75
2020/12/27 07:19:24;;;;;;;3.60;2.70;;;-0.30;99.90;;;;;;5034478;28;20996;-75
2020/12/27 07:21:50;;;;;;;2.90;2.70;;;-0.30;99.90;;;;;;5030687;28;20476;-75
2020/12/27 07:24:22;;;;;;;11.50;3.27;;;-0.30;99.90;;;;;;5038610;28;20814;-74
2020/12/27 07:26:48;;;;;;;6.40;3.10;;;-0.30;99.90;;;;;;5072894;28;20176;-75
2020/12/27 07:29:22;;;;;;;4.37;2.90;;;-0.20;99.90;;;;;;5040665;28;20459;-75
2020/12/27 07:31:50;;;;;;;9.10;3.20;;;-0.20;99.90;;;;;;5038128;28;20447;-75
2020/12/27 07:34:16;;;;;;;3.73;2.87;;;-0.20;99.90;;;;;;5038636;28;20400;-75
2020/12/27 07:36:42;;;;;;;3.40;3.07;;;-0.20;99.90;;;;;;5039818;28;20405;-75
2020/12/27 07:39:11;;;;;;;3.87;2.60;;;-0.20;99.90;;;;;;5040993;28;20671;-75
2020/12/27 07:41:40;;;;;;;2.20;2.00;;;-0.20;99.90;;;;;;5040417;28;20422;-74
2020/12/27 07:44:14;;;;;;;2.80;2.57;;;-0.20;99.90;;;;;;5040125;28;20458;-74
2020/12/27 07:46:41;;;;;;;4.27;3.13;;;-0.20;99.90;;;;;;5040704;28;20421;-74
2020/12/27 07:49:11;;;;;;;2.60;2.40;;;-0.20;99.90;;;;;;5042665;28;20443;-75
2020/12/27 07:51:37;;;;;;;5.33;3.37;;;-0.10;99.90;;;;;;5040370;28;20447;-75
2020/12/27 07:54:03;;;;;;;2.60;2.10;;;-0.10;99.90;;;;;;5040709;28;20426;-74
2020/12/27 07:56:30;;;;;;;2.60;2.40;;;-0.10;99.90;;;;;;5038057;28;20184;-75
2020/12/27 07:59:00;;;;;;;4.67;2.80;;;-0.10;99.90;;;;;;5041267;28;20489;-75
2020/12/27 08:01:33;;;;;;;2.83;2.63;;;0.00;99.90;;;;;;5034341;28;20418;-75
2020/12/27 08:04:01;;;;;;;3.00;2.77;;;0.10;99.90;;;;;;5041041;28;20416;-75
2020/12/27 08:06:30;;;;;;;5.00;3.80;;;0.10;99.90;;;;;;5034793;28;20483;-75
2020/12/27 08:09:14;;;;;;;5.50;2.70;;;0.10;99.90;;;;;;5034141;28;20498;-75
2020/12/27 08:11:41;;;;;;;5.87;3.50;;;0.10;99.90;;;;;;5028816;28;20606;-75
2020/12/27 08:14:09;;;;;;;3.40;2.80;;;0.20;99.90;;;;;;5031242;28;20487;-75
2020/12/27 08:16:39;;;;;;;3.83;2.83;;;0.10;99.90;;;;;;5019860;28;20489;-74
2020/12/27 08:19:06;;;;;;;8.10;3.27;;;0.10;99.90;;;;;;5031970;28;20442;-74
2020/12/27 08:21:32;;;;;;;4.40;3.50;;;0.20;99.90;;;;;;5038510;28;20395;-74
2020/12/27 08:24:08;;;;;;;5.90;2.70;;;0.20;99.90;;;;;;5040898;28;20429;-74
2020/12/27 08:26:35;;;;;;;3.47;3.07;;;0.20;99.90;;;;;;5038365;28;21014;-75
2020/12/27 08:29:07;;;;;;;6.07;3.07;;;0.20;99.90;;;;;;5036576;28;20423;-76
2020/12/27 08:31:33;;;;;;;5.43;3.80;;;0.10;99.90;;;;;;5041614;28;20962;-75
2020/12/27 08:34:13;;;;;;;5.83;3.20;;;0.20;99.90;;;;;;5041183;28;20434;-74
2020/12/27 08:36:40;;;;;;;6.20;3.20;;;0.20;99.90;;;;;;5038921;28;20182;-74
2020/12/27 08:39:29;;;;;;;4.37;2.70;;;0.30;99.90;;;;;;5039099;28;20460;-75
2020/12/27 08:42:04;;;;;;;3.83;3.33;;;0.30;99.90;;;;;;5034230;28;20444;-76
2020/12/27 08:44:57;;;;;;;6.70;4.00;;;0.20;99.90;;;;;;5040037;28;20399;-75
2020/12/27 08:47:50;;;;;;;4.50;3.30;;;0.30;99.90;;;;;;5031141;28;20425;-75
2020/12/27 08:50:22;;;;;;;3.97;3.57;;;0.30;99.90;;;;;;5033642;28;20464;-73
2020/12/27 08:52:50;;;;;;;4.80;2.97;;;0.30;99.90;;;;;;5037363;28;20527;-74
2020/12/27 08:55:25;;;;;;;6.43;2.90;;;0.30;99.90;;;;;;5039872;28;20420;-74
2020/12/27 08:57:52;;;;;;;5.00;3.53;;;0.20;99.90;;;;;;5036195;28;20423;-74
2020/12/27 09:00:18;;;;;;;2.97;2.67;;;0.30;99.90;;;;;;5040356;28;20424;-73
2020/12/27 09:02:54;;;;;;;3.20;2.83;;;0.40;99.90;;;;;;5039715;28;20448;-74
2020/12/27 09:05:19;;;;;;;4.30;3.27;;;0.40;99.90;;;;;;5038831;28;20429;-75
2020/12/27 09:07:45;;;;;;;3.33;2.50;;;0.60;99.90;;;;;;5043189;28;20431;-75
2020/12/27 09:10:37;;;;;;;2.73;2.53;;;0.70;99.90;;;;;;5042030;28;20185;-75
2020/12/27 09:13:05;;;;;;;6.33;2.93;;;0.70;99.90;;;;;;5039181;28;20462;-75
2020/12/27 09:15:42;;;;;;;3.60;2.80;;;0.60;99.90;;;;;;5043701;28;20773;-75
2020/12/27 09:18:10;;;;;;;3.47;2.70;;;0.70;99.90;;;;;;5039751;28;21115;-75
2020/12/27 09:20:40;;;;;;;3.73;2.70;;;0.80;99.90;;;;;;5037704;28;20527;-75
2020/12/27 09:23:13;;;;;;;4.40;1.63;;;0.80;99.90;;;;;;5042429;28;20458;-75
2020/12/27 09:25:39;;;;;;;3.97;3.10;;;0.90;99.90;;;;;;5043948;28;20498;-75
2020/12/27 09:28:13;;;;;;;3.00;2.57;;;1.00;99.90;;;;;;5042186;28;20427;-75
2020/12/27 09:30:40;;;;;;;3.07;2.40;;;1.10;99.90;;;;;;5046541;28;20179;-74
2020/12/27 09:33:05;;;;;;;4.80;2.30;;;1.10;99.90;;;;;;5042584;28;20448;-75
2020/12/27 09:35:31;;;;;;;2.37;2.23;;;1.10;99.90;;;;;;5039982;28;20531;-75
2020/12/27 09:37:57;;;;;;;3.83;2.43;;;1.20;99.90;;;;;;5041862;28;20209;-75
2020/12/27 09:40:22;;;;;;;3.40;2.17;;;1.30;99.90;;;;;;5042818;28;20186;-75
2020/12/27 09:42:48;;;;;;;4.03;3.43;;;1.40;99.90;;;;;;5039747;28;20197;-75
2020/12/27 09:45:25;;;;;;;3.83;3.10;;;1.50;99.90;;;;;;5038760;28;20185;-75
2020/12/27 09:47:53;;;;;;;3.70;2.43;;;1.60;99.90;;;;;;5045308;28;20481;-75
2020/12/27 09:50:36;;;;;;;3.97;3.53;;;1.60;99.90;;;;;;5042175;28;20417;-75
2020/12/27 09:53:03;;;;;;;6.33;3.17;;;1.80;99.90;;;;;;5040392;28;20813;-76
2020/12/27 09:55:29;;;;;;;3.17;2.87;;;1.90;99.90;;;;;;5041507;28;20416;-75
2020/12/27 09:57:54;;;;;;;5.80;3.67;;;2.00;99.90;;;;;;5043270;28;20451;-76
2020/12/27 10:00:20;;;;;;;3.10;2.80;;;1.90;99.90;;;;;;5037997;28;20396;-75
2020/12/27 10:02:46;;;;;;;4.77;3.27;;;1.90;99.90;;;;;;5041316;28;20681;-76
2020/12/27 10:05:11;;;;;;;3.60;3.27;;;2.10;99.90;;;;;;5043964;28;20851;-75
2020/12/27 10:07:38;;;;;;;6.80;3.50;;;2.00;99.90;;;;;;5043800;28;20173;-75
2020/12/27 10:10:05;;;;;;;4.40;3.20;;;2.00;99.90;;;;;;5043131;28;20407;-76
2020/12/27 10:12:31;;;;;;;6.20;3.43;;;2.00;99.90;;;;;;5044312;28;20542;-76
2020/12/27 10:14:57;;;;;;;4.10;3.40;;;2.00;99.90;;;;;;5042103;28;20658;-76
2020/12/27 10:17:23;;;;;;;4.50;3.20;;;1.90;99.90;;;;;;5044797;28;20948;-76
2020/12/27 10:19:49;;;;;;;3.90;3.43;;;1.80;99.90;;;;;;5038268;28;20497;-76
2020/12/27 10:22:15;;;;;;;3.50;3.20;;;1.70;99.90;;;;;;5039309;28;20292;-75
2020/12/27 10:24:41;;;;;;;4.93;3.43;;;1.80;99.90;;;;;;5039844;28;20544;-75
2020/12/27 10:27:07;;;;;;;5.07;2.97;;;1.80;99.90;;;;;;5039320;28;20544;-75
2020/12/27 10:29:33;;;;;;;3.23;2.97;;;1.70;99.90;;;;;;5040392;28;20178;-75
2020/12/27 10:32:01;;;;;;;4.33;3.47;;;1.70;99.90;;;;;;5043812;28;20204;-76
2020/12/27 10:34:27;;;;;;;4.00;3.60;;;1.60;99.90;;;;;;5041282;28;20425;-76
2020/12/27 10:36:55;;;;;;;5.17;3.73;;;1.70;99.90;;;;;;5042360;28;20458;-75
2020/12/27 10:39:21;;;;;;;3.27;2.80;;;1.70;99.90;;;;;;5033597;28;20899;-76
2020/12/27 10:41:48;;;;;;;3.10;2.80;;;1.60;99.90;;;;;;5030232;28;20821;-76
2020/12/27 10:44:15;;;;;;;3.13;2.80;;;1.60;99.90;;;;;;5035143;28;20433;-75
2020/12/27 10:46:41;;;;;;;5.50;3.60;;;1.50;99.90;;;;;;5038891;28;20836;-75
2020/12/27 10:49:07;;;;;;;5.93;3.77;;;1.40;99.90;;;;;;5030388;28;20418;-75
2020/12/27 10:51:39;;;;;;;10.73;3.80;;;1.50;99.90;;;;;;5033791;28;20206;-75
2020/12/27 10:54:05;;;;;;;4.80;3.27;;;1.60;99.90;;;;;;5031143;28;20187;-76
2020/12/27 10:56:31;;;;;;;4.60;3.50;;;1.60;99.90;;;;;;5032536;28;20984;-76
2020/12/27 10:58:57;;;;;;;11.63;3.90;;;1.70;99.90;;;;;;5030363;28;20584;-76
2020/12/27 11:01:23;;;;;;;5.70;3.97;;;1.80;99.90;;;;;;5040516;28;20524;-76
2020/12/27 11:03:49;;;;;;;5.87;3.70;;;1.80;99.90;;;;;;5035052;28;20435;-76
2020/12/27 11:06:14;;;;;;;4.80;4.07;;;1.90;99.90;;;;;;5031925;28;20523;-75
2020/12/27 11:08:40;;;;;;;4.73;3.50;;;1.90;99.90;;;;;;5036705;28;20188;-76
2020/12/27 11:11:06;;;;;;;5.90;3.80;;;2.00;99.90;;;;;;5037236;28;20600;-75
2020/12/27 11:13:31;;;;;;;8.40;5.20;;;2.00;99.90;;;;;;5042818;28;20209;-75
2020/12/27 11:15:57;;;;;;;6.23;5.37;;;1.80;99.90;;;;;;5040906;28;20193;-76
2020/12/27 11:18:22;;;;;;;9.27;5.77;;;1.60;99.90;;;;;;5039699;28;20227;-76
2020/12/27 11:20:48;;;;;;;8.30;6.17;;;1.60;99.90;;;;;;5040979;28;20257;-75
2020/12/27 11:23:13;;;;;;;6.50;5.63;;;1.60;99.90;;;;;;5038706;28;20623;-76
2020/12/27 11:25:39;;;;;;;6.37;5.20;;;1.60;99.90;;;;;;5041528;28;20668;-75
2020/12/27 11:28:04;;;;;;;7.60;6.13;;;1.50;99.90;;;;;;5041336;28;20758;-75
2020/12/27 11:30:30;;;;;;;9.40;6.50;;;1.50;99.90;;;;;;5040800;28;20182;-75
2020/12/27 11:32:55;;;;;;;10.00;6.70;;;1.50;99.90;;;;;;5042578;28;20283;-76
2020/12/27 11:35:21;;;;;;;10.97;6.10;;;1.50;99.90;;;;;;5041461;28;20173;-76
2020/12/27 11:37:49;;;;;;;12.97;7.63;;;1.50;99.90;;;;;;5042025;28;20181;-76
2020/12/27 11:40:14;;;;;;;10.60;6.37;;;1.50;99.90;;;;;;5039117;28;20214;-76
2020/12/27 11:42:40;;;;;;;7.73;6.97;;;1.40;99.90;;;;;;5042309;28;20462;-76
2020/12/27 11:45:05;;;;;;;9.60;5.60;;;1.30;99.90;;;;;;5041880;28;20230;-76
2020/12/27 11:47:31;;;;;;;9.40;6.23;;;1.40;99.90;;;;;;5041784;28;20178;-77
2020/12/27 11:49:57;;;;;;;10.50;6.67;;;1.40;99.90;;;;;;5039274;28;20177;-77
2020/12/27 11:52:25;;;;;;;8.37;6.07;;;1.40;99.90;;;;;;5038949;28;20240;-77
2020/12/27 11:54:54;;;;;;;7.20;5.50;;;1.40;99.90;;;;;;5035962;28;20189;-78
2020/12/27 11:57:19;;;;;;;8.33;5.10;;;1.50;99.90;;;;;;5042161;28;20490;-76
2020/12/27 11:59:45;;;;;;;9.17;6.07;;;1.60;99.90;;;;;;5042449;28;20497;-75
2020/12/27 12:02:11;;;;;;;5.77;4.60;;;1.60;99.90;;;;;;5040274;28;20620;-75
2020/12/27 12:04:36;;;;;;;12.53;6.33;;;1.60;99.90;;;;;;5041225;28;20178;-75
2020/12/27 12:07:02;;;;;;;7.63;5.87;;;1.60;99.90;;;;;;5041669;28;20178;-76
2020/12/27 12:09:28;;;;;;;8.20;6.17;;;1.60;99.90;;;;;;5038512;28;20195;-75
2020/12/27 12:11:53;;;;;;;6.73;6.00;;;1.70;99.90;;;;;;5039122;28;20268;-76
2020/12/27 12:14:18;;;;;;;6.67;5.27;;;1.70;99.90;;;;;;5041659;28;20185;-76
2020/12/27 12:16:44;;;;;;;10.60;5.37;;;1.80;99.90;;;;;;5038801;28;20190;-77
2020/12/27 12:19:10;;;;;;;8.97;5.07;;;1.80;99.90;;;;;;5040154;28;20215;-76
2020/12/27 12:21:35;;;;;;;9.20;5.87;;;1.80;99.90;;;;;;5040697;28;20286;-76
2020/12/27 12:24:01;;;;;;;7.03;5.50;;;1.80;99.90;;;;;;5038934;28;20276;-76
2020/12/27 12:26:31;;;;;;;13.87;5.67;;;1.80;99.90;;;;;;5038915;28;20174;-75
2020/12/27 12:28:58;;;;;;;8.40;5.50;;;1.80;99.90;;;;;;5041455;28;20173;-75
2020/12/27 12:31:25;;;;;;;9.87;6.13;;;1.70;99.90;;;;;;5042094;28;20434;-75
2020/12/27 12:33:51;;;;;;;8.30;5.33;;;1.80;99.90;;;;;;5034582;28;21041;-75
2020/12/27 12:36:18;;;;;;;8.83;5.30;;;1.80;99.90;;;;;;5039237;28;20443;-76
2020/12/27 12:38:43;;;;;;;7.93;5.70;;;1.80;99.90;;;;;;5037895;28;20631;-76
2020/12/27 12:41:12;;;;;;;10.50;6.27;;;1.80;99.90;;;;;;5039164;28;20486;-75
2020/12/27 12:43:42;;;;;;;8.70;5.43;;;1.80;99.90;;;;;;5040135;28;20197;-76
2020/12/27 12:46:09;;;;;;;7.70;6.00;;;1.90;99.90;;;;;;5040072;28;20415;-75
2020/12/27 12:48:35;;;;;;;7.23;5.67;;;1.90;99.90;;;;;;5038601;28;20407;-75
2020/12/27 12:51:01;;;;;;;10.53;6.87;;;2.00;99.90;;;;;;5041400;28;20394;-76
2020/12/27 12:53:26;;;;;;;9.70;5.47;;;2.00;99.90;;;;;;5039362;28;20528;-75
2020/12/27 12:55:52;;;;;;;8.20;6.97;;;2.10;99.90;;;;;;5042719;28;20182;-76